createdAt,value
2022-07-25T06:15:22.624Z,23.95
2022-07-25T14:09:04.487Z,31.39
2022-07-25T14:11:32.783Z,31.71
2022-07-25T14:14:01.405Z,31.53
2022-07-25T14:16:29.678Z,31.17
2022-07-25T14:18:57.094Z,30.59
2022-07-25T14:21:25.452Z,30.14
2022-07-25T14:23:53.767Z,29.33
2022-07-25T14:26:21.929Z,29.57
2022-07-25T14:28:49.473Z,29.46
2022-07-25T14:31:18.733Z,29.35
2022-07-25T14:33:47.107Z,29.34
2022-07-25T14:36:14.507Z,29.32
2022-07-25T14:38:42.037Z,29.33
2022-07-25T14:41:13.053Z,28.97
2022-07-25T14:43:55.700Z,28.85
2022-07-25T14:46:23.317Z,28.72
2022-07-25T14:48:52.794Z,28.72
2022-07-25T14:51:20.723Z,28.66
2022-07-25T14:53:52.989Z,28.64
2022-07-25T14:56:20.860Z,28.64
2022-07-25T14:58:48.299Z,28.51
2022-07-25T15:01:18.990Z,28.30
2022-07-25T15:03:46.865Z,28.18
2022-07-25T15:06:17.500Z,27.99
2022-07-25T15:08:45.974Z,28.02
2022-07-25T15:11:13.706Z,28.00
2022-07-25T15:13:42.544Z,27.76
2022-07-25T15:16:10.298Z,27.82
2022-07-25T15:18:52.525Z,27.85
2022-07-25T15:21:26.629Z,27.89
2022-07-25T15:23:54.332Z,27.87
2022-07-25T15:26:21.834Z,27.78
2022-07-25T15:28:49.828Z,27.77
2022-07-25T15:31:17.591Z,27.56
2022-07-25T15:33:45.307Z,27.34
2022-07-25T15:36:13.069Z,27.11
2022-07-25T15:38:41.222Z,26.91
2022-07-25T15:41:10.816Z,26.81
2022-07-25T15:43:39.037Z,26.68
2022-07-25T15:46:06.746Z,26.62
2022-07-25T15:48:35.314Z,26.63
2022-07-25T15:51:03.210Z,26.70
2022-07-25T15:53:30.714Z,26.65
2022-07-25T15:55:58.266Z,26.54
2022-07-25T15:58:26.973Z,26.58
2022-07-25T16:00:54.543Z,26.68
2022-07-25T16:03:24.164Z,26.73
2022-07-25T16:05:51.887Z,26.80
2022-07-25T16:08:19.473Z,26.88
2022-07-25T16:10:50.210Z,26.94
2022-07-25T16:13:18.168Z,26.86
2022-07-25T16:15:45.895Z,26.93
2022-07-25T16:18:13.504Z,26.94
2022-07-25T16:20:41.714Z,26.88
2022-07-25T16:23:09.963Z,26.87
2022-07-25T16:25:37.537Z,26.79
2022-07-25T16:28:07.420Z,26.70
2022-07-25T16:30:35.938Z,26.67
2022-07-25T16:33:03.507Z,26.50
2022-07-25T16:35:33.805Z,26.48
2022-07-25T16:38:01.486Z,26.51
2022-07-25T16:40:30.885Z,26.37
2022-07-25T16:42:59.531Z,26.28
2022-07-25T16:45:28.145Z,26.27
2022-07-25T16:47:55.613Z,26.18
2022-07-25T16:50:23.331Z,26.08
2022-07-25T16:52:50.902Z,26.10
2022-07-25T16:55:18.477Z,26.08
2022-07-25T16:57:47.834Z,25.98
2022-07-25T17:00:15.506Z,25.94
2022-07-25T17:02:44.160Z,25.91
2022-07-25T17:05:12.097Z,25.90
2022-07-25T17:07:40.076Z,25.85
2022-07-25T17:10:08.758Z,25.78
2022-07-25T17:12:36.402Z,25.74
2022-07-25T17:15:04.717Z,25.65
2022-07-25T17:17:32.259Z,25.60
2022-07-25T17:20:00.289Z,25.60
2022-07-25T17:22:28.103Z,25.57
2022-07-25T17:24:55.741Z,25.56
2022-07-25T17:27:23.473Z,25.51
2022-07-25T17:29:51.144Z,25.46
2022-07-25T17:32:18.903Z,25.37
2022-07-25T17:34:47.289Z,25.32
2022-07-25T17:37:14.948Z,25.39
2022-07-25T17:39:42.423Z,25.35
2022-07-25T17:42:10.019Z,25.21
2022-07-25T17:44:38.104Z,25.21
2022-07-25T17:47:06.506Z,25.13
2022-07-25T17:49:34.342Z,25.08
2022-07-25T17:52:01.875Z,25.04
2022-07-25T17:54:29.650Z,25.01
2022-07-25T17:56:58.659Z,24.99
2022-07-25T17:59:26.093Z,24.96
2022-07-25T18:01:53.597Z,24.93
2022-07-25T18:04:21.599Z,24.89
2022-07-25T18:06:50.224Z,24.82
2022-07-25T18:09:20.425Z,24.73
2022-07-25T18:11:51.031Z,24.71
2022-07-25T18:14:18.586Z,24.67
2022-07-25T18:16:46.444Z,24.64
2022-07-25T18:19:14.333Z,24.62
2022-07-25T18:21:42.515Z,24.62
2022-07-25T18:24:10.553Z,24.71
2022-07-25T18:26:39.605Z,24.68
2022-07-25T18:29:07.976Z,24.61
2022-07-25T18:31:36.410Z,24.49
2022-07-25T18:34:04.750Z,24.48
2022-07-25T18:36:33.091Z,24.44
2022-07-25T18:39:00.632Z,24.43
2022-07-25T18:41:30.072Z,24.43
2022-07-25T18:43:58.825Z,24.44
2022-07-25T18:46:30.269Z,24.43
2022-07-25T18:48:59.808Z,24.41
2022-07-25T18:51:27.649Z,24.35
2022-07-25T18:53:55.164Z,24.29
2022-07-25T18:56:28.032Z,24.34
2022-07-25T18:58:56.413Z,24.43
2022-07-25T19:01:29.583Z,24.59
2022-07-25T19:03:57.127Z,24.62
2022-07-25T19:06:24.721Z,24.65
2022-07-25T19:08:55.797Z,24.54
2022-07-25T19:11:23.514Z,24.48
2022-07-25T19:13:51.598Z,24.37
2022-07-25T19:16:19.702Z,24.35
2022-07-25T19:18:47.649Z,24.37
2022-07-25T19:21:17.054Z,24.42
2022-07-25T19:23:49.961Z,24.59
2022-07-25T19:26:18.479Z,24.52
2022-07-25T19:28:46.225Z,24.48
2022-07-25T19:31:15.310Z,24.61
2022-07-25T19:33:43.030Z,24.61
2022-07-25T19:36:10.586Z,24.62
2022-07-25T19:38:38.187Z,24.50
2022-07-25T19:41:08.355Z,24.47
2022-07-25T19:43:37.040Z,24.38
2022-07-25T19:46:04.664Z,24.39
2022-07-25T19:48:33.119Z,24.45
2022-07-25T19:51:00.893Z,24.46
2022-07-25T19:53:28.986Z,24.34
2022-07-25T19:55:56.613Z,24.49
2022-07-25T19:58:24.247Z,24.32
2022-07-25T20:00:51.957Z,24.21
2022-07-25T20:03:23.246Z,24.16
2022-07-25T20:05:52.197Z,24.25
2022-07-25T20:08:20.304Z,24.10
2022-07-25T20:10:48.525Z,24.15
2022-07-25T20:13:17.990Z,24.01
2022-07-25T20:15:46.317Z,23.96
2022-07-25T20:18:18.941Z,23.97
2022-07-25T20:20:47.512Z,24.06
2022-07-25T20:23:15.402Z,24.07
2022-07-25T20:25:43.063Z,23.91
2022-07-25T20:28:10.875Z,24.03
2022-07-25T20:30:40.112Z,23.92
2022-07-25T20:33:09.511Z,23.85
2022-07-25T20:35:38.860Z,23.70
2022-07-25T20:38:09.650Z,23.83
2022-07-25T20:40:49.390Z,23.83
2022-07-25T20:43:17.032Z,23.77
2022-07-25T20:45:45.094Z,23.73
2022-07-25T20:48:15.102Z,23.75
2022-07-25T20:50:43.315Z,23.77
2022-07-25T20:53:11.571Z,23.79
2022-07-25T20:55:39.082Z,23.81
2022-07-25T20:58:06.696Z,23.72
2022-07-25T21:00:35.196Z,23.73
2022-07-25T21:03:02.917Z,23.58
2022-07-25T21:05:31.662Z,23.43
2022-07-25T21:07:59.931Z,23.52
2022-07-25T21:10:27.840Z,23.56
2022-07-25T21:12:56.851Z,23.57
2022-07-25T21:15:25.240Z,23.42
2022-07-25T21:17:54.162Z,23.41
2022-07-25T21:20:21.918Z,23.50
2022-07-25T21:22:50.832Z,23.60
2022-07-25T21:25:21.137Z,23.60
2022-07-25T21:27:49.270Z,23.67
2022-07-25T21:30:16.678Z,23.56
2022-07-25T21:32:45.117Z,23.51
2022-07-25T21:35:12.945Z,23.45
2022-07-25T21:37:40.356Z,23.61
2022-07-25T21:40:08.818Z,23.48
2022-07-25T21:42:37.028Z,23.66
2022-07-25T21:45:05.811Z,23.83
2022-07-25T21:47:33.788Z,23.73
2022-07-25T21:50:24.818Z,24.01
2022-07-25T21:52:54.004Z,24.07
2022-07-25T21:55:22.475Z,24.15
2022-07-25T21:57:54.296Z,23.68
2022-07-25T22:00:22.532Z,23.03
2022-07-25T22:02:51.305Z,23.10
2022-07-25T22:05:19.728Z,23.46
2022-07-25T22:07:48.412Z,23.49
2022-07-25T22:10:17.894Z,23.27
2022-07-25T22:12:46.572Z,23.01
2022-07-25T22:15:14.825Z,23.15
2022-07-25T22:17:48.232Z,23.09
2022-07-25T22:20:19.641Z,23.02
2022-07-25T22:22:48.137Z,23.10
2022-07-25T22:25:16.485Z,23.08
2022-07-25T22:27:45.364Z,23.39
2022-07-25T22:30:18.494Z,23.34
2022-07-25T22:32:48.537Z,23.47
2022-07-25T22:35:16.581Z,23.38
2022-07-25T22:37:47.094Z,23.24
2022-07-25T22:40:14.965Z,23.21
2022-07-25T22:42:42.874Z,23.50
2022-07-25T22:45:11.075Z,23.51
2022-07-25T22:47:39.168Z,23.43
2022-07-25T22:50:07.732Z,23.36
2022-07-25T22:52:35.637Z,23.54
2022-07-25T22:55:04.145Z,23.56
2022-07-25T22:57:37.326Z,23.55
2022-07-25T23:00:11.365Z,23.73
2022-07-25T23:02:39.878Z,23.58
2022-07-25T23:05:08.967Z,23.53
2022-07-25T23:07:38.810Z,23.48
2022-07-25T23:10:07.527Z,23.48
2022-07-25T23:12:36.134Z,23.38
2022-07-25T23:15:05.505Z,23.48
2022-07-25T23:17:33.094Z,23.53
2022-07-25T23:20:01.132Z,23.53
2022-07-25T23:22:30.324Z,23.18
2022-07-25T23:24:58.856Z,23.18
2022-07-25T23:27:27.396Z,22.95
2022-07-25T23:29:55.617Z,22.74
2022-07-25T23:32:23.121Z,22.76
2022-07-25T23:34:51.134Z,22.69
2022-07-25T23:37:18.864Z,22.62
2022-07-25T23:39:46.324Z,22.61
2022-07-25T23:42:19.244Z,22.49
2022-07-25T23:44:46.917Z,22.29
2022-07-25T23:47:14.672Z,22.31
2022-07-25T23:49:43.093Z,22.65
2022-07-25T23:52:10.771Z,22.86
2022-07-25T23:54:40.730Z,22.95
2022-07-25T23:57:08.799Z,22.71
2022-07-25T23:59:36.656Z,22.77
